Time;durP1;ratioP1;P1;durP2;ratioP2;P2;SDS_P1;SDS_P2;PMS_P1;PMS_P2;Temp;Humidity;BMP_temperature;BMP_pressure;BME280_temperature;BME280_humidity;BME280_pressure;Samples;Min_cycle;Max_cycle;Signal;HPM_P1;HPM_P2
2022/04/08 00:01:28;;;;;;;16.27;2.00;;;8.40;93.40;;;;;;4979577;28;20193;-80
2022/04/08 00:03:55;;;;;;;1.63;1.20;;;8.40;93.40;;;;;;4981612;28;20217;-80
2022/04/08 00:06:21;;;;;;;5.70;1.23;;;8.40;93.30;;;;;;4980933;28;20190;-80
2022/04/08 00:08:48;;;;;;;3.27;1.43;;;8.40;93.40;;;;;;4982423;28;20449;-81
2022/04/08 00:11:13;;;;;;;2.63;1.40;;;8.40;93.50;;;;;;4979273;28;20418;-80
2022/04/08 00:13:39;;;;;;;8.57;1.80;;;8.40;93.20;;;;;;4981463;28;20214;-79
2022/04/08 00:16:07;;;;;;;4.10;1.73;;;8.40;93.40;;;;;;4976790;28;20609;-79
2022/04/08 00:18:33;;;;;;;1.50;1.47;;;8.40;93.50;;;;;;4975323;28;20355;-81
2022/04/08 00:20:59;;;;;;;3.67;1.33;;;8.40;93.20;;;;;;4977480;28;20450;-80
2022/04/08 00:23:25;;;;;;;3.20;1.40;;;8.40;93.10;;;;;;4974957;28;20500;-79
2022/04/08 00:25:51;;;;;;;2.73;1.40;;;8.40;93.10;;;;;;4978487;28;20999;-81
2022/04/08 00:28:16;;;;;;;4.60;1.60;;;8.40;92.80;;;;;;4981617;28;20170;-80
2022/04/08 00:30:42;;;;;;;2.33;1.30;;;8.50;92.20;;;;;;4981868;28;20796;-85
2022/04/08 00:33:08;;;;;;;6.60;1.60;;;8.50;92.20;;;;;;4977725;28;20178;-82
2022/04/08 00:35:33;;;;;;;1.90;1.30;;;8.50;92.60;;;;;;4976850;28;20185;-84
2022/04/08 00:37:59;;;;;;;3.80;1.57;;;8.50;92.70;;;;;;4975629;28;20236;-83
2022/04/08 00:40:24;;;;;;;4.60;1.50;;;8.40;92.70;;;;;;4975157;28;20210;-85
2022/04/08 00:42:50;;;;;;;2.70;1.73;;;8.40;92.50;;;;;;4975839;28;20210;-84
2022/04/08 00:45:16;;;;;;;3.10;1.40;;;8.40;92.80;;;;;;4976169;28;20245;-86
2022/04/08 00:47:44;;;;;;;2.50;1.40;;;8.40;92.90;;;;;;4975319;28;20183;-85
2022/04/08 00:50:10;;;;;;;13.60;2.53;;;8.40;92.90;;;;;;4975928;28;20546;-83
2022/04/08 00:52:40;;;;;;;2.13;1.40;;;8.30;93.00;;;;;;4973855;28;20422;-84
2022/04/08 00:55:06;;;;;;;2.63;1.47;;;8.30;93.30;;;;;;4975064;28;20446;-83
2022/04/08 00:57:33;;;;;;;3.90;1.60;;;8.30;93.40;;;;;;4975737;28;20848;-83
2022/04/08 01:00:04;;;;;;;3.90;1.80;;;8.20;93.70;;;;;;4976373;28;20466;-82
2022/04/08 01:02:31;;;;;;;5.50;1.30;;;8.20;93.90;;;;;;4974814;28;20432;-84
2022/04/08 01:04:56;;;;;;;2.40;1.50;;;8.20;94.00;;;;;;4974877;28;20466;-82
2022/04/08 01:07:23;;;;;;;2.17;1.23;;;8.10;93.90;;;;;;4975301;28;20798;-84
2022/04/08 01:09:50;;;;;;;3.30;1.83;;;8.10;94.00;;;;;;4975809;28;20179;-83
2022/04/08 01:12:16;;;;;;;3.77;1.50;;;8.10;94.20;;;;;;4974045;28;20466;-84
2022/04/08 01:14:41;;;;;;;1.57;1.27;;;8.10;94.40;;;;;;4967025;28;20963;-84
2022/04/08 01:17:07;;;;;;;2.13;1.40;;;8.00;94.50;;;;;;4956711;28;20183;-83
2022/04/08 01:19:33;;;;;;;1.27;1.23;;;8.00;94.70;;;;;;4957316;28;20630;-84
2022/04/08 01:21:58;;;;;;;1.20;1.10;;;7.90;95.20;;;;;;4954312;28;20186;-85
2022/04/08 01:24:26;;;;;;;2.63;1.53;;;7.90;95.30;;;;;;4957397;28;20225;-87
2022/04/08 01:26:52;;;;;;;4.30;1.30;;;7.80;95.50;;;;;;4956829;28;20213;-86
2022/04/08 01:29:18;;;;;;;1.70;1.50;;;7.80;95.80;;;;;;4955899;29;20473;-86
2022/04/08 01:31:45;;;;;;;5.50;1.70;;;7.70;96.10;;;;;;4958398;29;20459;-83
2022/04/08 01:34:12;;;;;;;3.00;1.50;;;7.70;96.30;;;;;;4962244;28;20459;-81
2022/04/08 01:36:37;;;;;;;6.20;1.50;;;7.60;96.50;;;;;;4962657;28;20463;-82
2022/04/08 01:39:04;;;;;;;3.13;1.63;;;7.60;96.70;;;;;;4962642;28;20438;-82
2022/04/08 01:41:31;;;;;;;3.30;1.60;;;7.50;96.80;;;;;;4961738;29;20179;-81
2022/04/08 01:43:57;;;;;;;3.13;1.83;;;7.60;96.80;;;;;;4961350;28;20514;-82
2022/04/08 01:46:23;;;;;;;5.60;1.83;;;7.60;96.70;;;;;;4962327;29;20506;-82
2022/04/08 01:48:53;;;;;;;4.87;1.90;;;7.60;96.60;;;;;;4961895;29;20498;-82
2022/04/08 01:51:19;;;;;;;3.23;1.73;;;7.60;96.70;;;;;;4961910;28;20920;-80
2022/04/08 01:53:44;;;;;;;3.90;2.50;;;7.50;96.90;;;;;;4960349;28;20442;-81
2022/04/08 01:56:10;;;;;;;8.67;2.63;;;7.50;96.90;;;;;;4977825;28;20450;-80
2022/04/08 01:58:35;;;;;;;4.00;1.90;;;7.50;97.10;;;;;;4962556;29;20179;-81
2022/04/08 02:01:01;;;;;;;2.90;1.50;;;7.50;97.10;;;;;;4961219;29;20187;-80
2022/04/08 02:03:28;;;;;;;3.37;2.00;;;7.50;97.30;;;;;;4959595;28;20226;-80
2022/04/08 02:05:53;;;;;;;4.30;1.70;;;7.50;97.30;;;;;;4960394;29;20426;-80
2022/04/08 02:08:19;;;;;;;1.90;1.83;;;7.50;97.30;;;;;;4975273;28;20427;-81
2022/04/08 02:10:44;;;;;;;6.10;1.90;;;7.50;97.30;;;;;;4960517;29;20182;-80
2022/04/08 02:13:10;;;;;;;4.90;2.07;;;7.50;97.30;;;;;;4959428;28;20179;-76
2022/04/08 02:15:37;;;;;;;8.70;2.10;;;7.60;97.10;;;;;;4959138;29;20442;-81
2022/04/08 02:18:03;;;;;;;3.67;1.90;;;7.60;97.00;;;;;;4963635;28;20189;-81
2022/04/08 02:20:30;;;;;;;3.57;1.70;;;7.60;97.10;;;;;;4962156;28;20423;-79
2022/04/08 02:22:56;;;;;;;4.80;1.90;;;7.60;97.20;;;;;;4978234;28;20502;-81
2022/04/08 02:25:22;;;;;;;4.03;1.83;;;7.50;97.30;;;;;;4999175;28;20476;-82
2022/04/08 02:27:48;;;;;;;4.17;2.23;;;7.50;97.30;;;;;;4984155;28;20422;-81
2022/04/08 02:30:13;;;;;;;3.57;3.07;;;7.50;97.30;;;;;;4984650;28;20214;-81
2022/04/08 02:32:39;;;;;;;5.83;2.00;;;7.50;97.30;;;;;;4989210;28;20794;-78
2022/04/08 02:35:05;;;;;;;3.33;2.30;;;7.50;97.30;;;;;;4975048;28;20222;-79
2022/04/08 02:37:31;;;;;;;3.37;1.60;;;7.50;97.30;;;;;;4975066;28;20238;-79
2022/04/08 02:39:57;;;;;;;3.27;2.10;;;7.50;97.30;;;;;;4973775;28;20430;-78
2022/04/08 02:42:23;;;;;;;2.40;1.73;;;7.50;97.30;;;;;;4975472;28;20421;-79
2022/04/08 02:44:48;;;;;;;4.80;1.93;;;7.50;97.30;;;;;;4973276;28;20225;-78
2022/04/08 02:47:14;;;;;;;4.07;2.00;;;7.50;97.30;;;;;;4973952;28;20193;-79
2022/04/08 02:49:39;;;;;;;3.37;2.20;;;7.50;97.30;;;;;;4974031;28;20268;-78
2022/04/08 02:52:06;;;;;;;3.90;2.00;;;7.50;97.30;;;;;;4973913;28;20217;-78
2022/04/08 02:54:31;;;;;;;2.33;1.93;;;7.50;97.30;;;;;;4970564;28;20214;-79
2022/04/08 02:56:57;;;;;;;6.00;2.00;;;7.50;97.30;;;;;;4959094;28;21059;-79
2022/04/08 02:59:22;;;;;;;2.40;1.90;;;7.50;97.30;;;;;;4981547;28;20553;-78
2022/04/08 03:01:48;;;;;;;2.30;1.70;;;7.50;97.30;;;;;;4973775;28;20557;-79
2022/04/08 03:04:14;;;;;;;5.00;2.37;;;7.40;97.30;;;;;;4975273;28;20277;-80
2022/04/08 03:06:40;;;;;;;4.60;2.27;;;7.50;97.30;;;;;;4974309;28;20419;-77
2022/04/08 03:09:05;;;;;;;3.50;2.10;;;7.50;97.30;;;;;;4970200;28;20423;-77
2022/04/08 03:11:32;;;;;;;5.20;2.27;;;7.50;97.30;;;;;;4970094;28;20483;-78
2022/04/08 03:14:02;;;;;;;3.47;1.93;;;7.50;97.30;;;;;;4954669;28;20642;-78
2022/04/08 03:16:28;;;;;;;3.70;2.10;;;7.50;97.30;;;;;;4964033;28;21051;-78
2022/04/08 03:18:54;;;;;;;7.13;2.90;;;7.50;97.30;;;;;;4973049;28;20931;-78
2022/04/08 03:21:19;;;;;;;2.77;1.97;;;7.40;97.30;;;;;;4973236;28;20433;-79
2022/04/08 03:23:45;;;;;;;4.10;2.13;;;7.40;97.30;;;;;;4973369;28;20214;-78
2022/04/08 03:26:11;;;;;;;7.37;2.80;;;7.40;97.30;;;;;;4973394;28;20193;-78
2022/04/08 03:28:37;;;;;;;4.43;2.30;;;7.40;97.30;;;;;;4973233;28;20179;-79
2022/04/08 03:31:02;;;;;;;3.00;1.93;;;7.40;97.30;;;;;;4973101;28;20418;-79
2022/04/08 03:33:28;;;;;;;2.20;2.00;;;7.40;97.30;;;;;;4970293;28;20245;-79
2022/04/08 03:35:54;;;;;;;7.90;2.37;;;7.30;97.30;;;;;;4969581;28;20215;-78
2022/04/08 03:38:19;;;;;;;3.40;2.33;;;7.30;97.30;;;;;;4954070;29;20179;-78
2022/04/08 03:40:45;;;;;;;5.40;2.60;;;7.30;97.30;;;;;;4953680;29;20259;-78
2022/04/08 03:43:10;;;;;;;8.03;2.73;;;7.30;97.30;;;;;;4954987;28;20179;-78
2022/04/08 03:45:36;;;;;;;7.53;2.83;;;7.30;97.30;;;;;;4953415;28;20207;-77
2022/04/08 03:48:02;;;;;;;5.00;2.50;;;7.20;97.30;;;;;;4954136;29;20187;-78
2022/04/08 03:50:28;;;;;;;4.10;2.03;;;7.20;97.30;;;;;;4964020;28;20190;-78
2022/04/08 03:52:53;;;;;;;4.67;2.63;;;7.20;97.30;;;;;;4980164;28;20433;-78
2022/04/08 03:55:19;;;;;;;3.87;2.40;;;7.20;97.30;;;;;;4966282;28;20213;-77
2022/04/08 03:57:45;;;;;;;8.70;2.20;;;7.20;97.30;;;;;;4982364;28;20186;-79
2022/04/08 04:00:10;;;;;;;12.43;2.40;;;7.20;97.30;;;;;;4982227;28;20186;-81
2022/04/08 04:02:36;;;;;;;10.83;2.97;;;7.20;97.30;;;;;;4978358;28;20197;-78
2022/04/08 04:05:03;;;;;;;4.00;2.20;;;7.30;97.30;;;;;;4967180;28;20222;-80
2022/04/08 04:07:28;;;;;;;11.37;3.57;;;7.20;97.30;;;;;;4986665;28;20189;-78
2022/04/08 04:09:55;;;;;;;5.43;2.60;;;7.30;97.30;;;;;;4987563;28;20800;-79
2022/04/08 04:12:20;;;;;;;4.60;2.03;;;7.30;97.30;;;;;;4987780;28;20189;-78
2022/04/08 04:14:46;;;;;;;3.87;2.27;;;7.30;97.30;;;;;;4978430;28;20449;-79
2022/04/08 04:17:13;;;;;;;3.40;2.80;;;7.30;97.30;;;;;;4989426;28;20186;-82
2022/04/08 04:19:40;;;;;;;4.53;2.27;;;7.30;97.30;;;;;;4979943;28;20209;-79
2022/04/08 04:22:05;;;;;;;3.73;2.20;;;7.30;97.30;;;;;;4986787;28;20426;-79
2022/04/08 04:24:31;;;;;;;9.23;2.93;;;7.30;97.30;;;;;;4983439;28;20528;-76
2022/04/08 04:26:56;;;;;;;6.37;2.27;;;7.30;97.30;;;;;;4986975;28;20175;-77
2022/04/08 04:29:22;;;;;;;2.07;1.90;;;7.40;97.30;;;;;;4970433;28;20188;-76
2022/04/08 04:31:48;;;;;;;2.83;2.13;;;7.40;97.30;;;;;;4993126;28;20241;-82
2022/04/08 04:34:14;;;;;;;3.13;2.03;;;7.40;97.30;;;;;;4973202;28;20206;-85
2022/04/08 04:36:40;;;;;;;4.53;2.13;;;7.40;97.30;;;;;;4971899;28;20525;-81
2022/04/08 04:39:06;;;;;;;3.50;2.30;;;7.40;97.30;;;;;;4971080;28;20418;-81
2022/04/08 04:41:32;;;;;;;3.40;2.43;;;7.40;97.30;;;;;;4983052;28;20570;-80
2022/04/08 04:43:58;;;;;;;2.37;1.97;;;7.50;97.30;;;;;;4967835;28;20526;-78
2022/04/08 04:46:24;;;;;;;5.30;2.70;;;7.40;97.30;;;;;;4967276;28;20194;-78
2022/04/08 04:48:49;;;;;;;6.50;3.57;;;7.50;97.30;;;;;;4970504;28;20637;-78
2022/04/08 04:51:16;;;;;;;3.53;1.80;;;7.50;97.30;;;;;;4969107;28;20190;-77
2022/04/08 04:53:42;;;;;;;6.93;2.50;;;7.40;97.30;;;;;;4987208;28;20665;-77
2022/04/08 04:56:08;;;;;;;10.87;2.47;;;7.40;97.30;;;;;;4958183;28;20426;-78
2022/04/08 04:58:34;;;;;;;4.93;2.60;;;7.40;97.30;;;;;;4973466;28;20418;-77
2022/04/08 05:01:00;;;;;;;6.37;2.90;;;7.50;97.30;;;;;;4971210;28;20183;-78
2022/04/08 05:03:26;;;;;;;2.50;2.30;;;7.50;97.30;;;;;;4954891;28;20274;-77
2022/04/08 05:05:53;;;;;;;4.80;2.30;;;7.40;97.30;;;;;;4954537;29;20426;-77
2022/04/08 05:08:20;;;;;;;3.00;2.20;;;7.50;97.30;;;;;;4954685;29;20274;-78
2022/04/08 05:10:47;;;;;;;5.87;2.70;;;7.40;97.30;;;;;;4956697;28;20411;-77
2022/04/08 05:13:12;;;;;;;5.27;2.23;;;7.50;97.30;;;;;;4955805;28;20423;-78
2022/04/08 05:15:42;;;;;;;3.20;2.10;;;7.50;97.30;;;;;;4958671;28;20429;-75
2022/04/08 05:18:11;;;;;;;27.13;3.67;;;7.50;97.30;;;;;;4976609;28;20202;-78
2022/04/08 05:20:37;;;;;;;2.23;2.07;;;7.50;97.10;;;;;;4973733;28;20433;-78
2022/04/08 05:23:03;;;;;;;7.10;2.73;;;7.50;97.30;;;;;;4979068;28;20537;-79
2022/04/08 05:25:28;;;;;;;2.50;2.30;;;7.50;97.10;;;;;;4974051;28;20685;-77
2022/04/08 05:27:54;;;;;;;7.63;2.23;;;7.50;97.10;;;;;;4992212;28;20178;-78
2022/04/08 05:30:20;;;;;;;5.10;2.87;;;7.50;97.10;;;;;;4991862;28;20182;-78
2022/04/08 05:32:46;;;;;;;2.47;2.33;;;7.50;97.10;;;;;;4973816;28;20171;-78
2022/04/08 05:35:14;;;;;;;3.17;2.00;;;7.50;97.10;;;;;;4973716;28;20445;-79
2022/04/08 05:37:44;;;;;;;2.47;2.17;;;7.50;97.10;;;;;;4974246;28;20469;-78
2022/04/08 05:40:13;;;;;;;5.37;2.00;;;7.50;96.90;;;;;;4970498;28;20505;-78
2022/04/08 05:42:46;;;;;;;3.97;2.17;;;7.60;96.90;;;;;;4970329;28;20458;-78
2022/04/08 05:45:14;;;;;;;2.33;2.10;;;7.60;96.90;;;;;;4955288;28;20498;-78
2022/04/08 05:47:40;;;;;;;4.57;2.40;;;7.60;96.90;;;;;;4953953;29;20423;-78
2022/04/08 05:50:07;;;;;;;2.20;2.00;;;7.60;97.00;;;;;;4955073;29;20763;-78
2022/04/08 05:52:33;;;;;;;5.53;2.90;;;7.60;96.80;;;;;;4953850;29;20415;-78
2022/04/08 05:54:58;;;;;;;3.10;2.27;;;7.60;96.80;;;;;;4954043;28;20445;-78
2022/04/08 05:57:24;;;;;;;3.83;2.20;;;7.60;96.90;;;;;;4954529;28;20422;-79
2022/04/08 05:59:57;;;;;;;3.47;2.10;;;7.60;96.90;;;;;;4954080;29;20560;-78
2022/04/08 06:02:23;;;;;;;47.93;3.70;;;7.60;97.10;;;;;;4954820;29;20187;-79
2022/04/08 06:04:48;;;;;;;2.97;2.60;;;7.60;97.00;;;;;;4956564;28;20467;-79
2022/04/08 06:07:14;;;;;;;5.50;2.53;;;7.60;97.10;;;;;;4956863;28;20183;-79
2022/04/08 06:09:39;;;;;;;2.50;2.10;;;7.60;96.90;;;;;;4954921;28;20249;-79
2022/04/08 06:12:05;;;;;;;2.20;2.00;;;7.60;97.00;;;;;;4971590;28;20190;-78
2022/04/08 06:14:31;;;;;;;3.30;1.97;;;7.60;96.80;;;;;;4971190;28;20203;-78
2022/04/08 06:16:57;;;;;;;2.77;2.10;;;7.60;96.90;;;;;;4955247;28;20909;-79
2022/04/08 06:19:23;;;;;;;4.23;2.00;;;7.60;97.00;;;;;;4955223;29;20828;-79
2022/04/08 06:21:48;;;;;;;4.97;1.80;;;7.70;97.10;;;;;;4955339;28;20187;-78
2022/04/08 06:24:14;;;;;;;2.33;1.80;;;7.70;96.90;;;;;;4956962;28;20344;-78
2022/04/08 06:26:40;;;;;;;3.40;1.70;;;7.70;96.70;;;;;;4955612;28;20206;-78
2022/04/08 06:29:05;;;;;;;2.57;1.60;;;7.70;96.30;;;;;;4954099;29;20262;-79
2022/04/08 06:31:32;;;;;;;4.40;1.90;;;7.70;95.90;;;;;;4969396;28;20612;-79
2022/04/08 06:33:59;;;;;;;5.33;1.77;;;7.70;95.50;;;;;;4974183;28;20199;-79
2022/04/08 06:36:28;;;;;;;4.60;2.73;;;7.70;95.40;;;;;;4990110;28;20469;-79
2022/04/08 06:38:55;;;;;;;4.47;1.90;;;7.70;94.70;;;;;;4974271;28;20430;-79
2022/04/08 06:41:21;;;;;;;6.20;1.80;;;7.70;94.60;;;;;;4974258;28;20472;-78
2022/04/08 06:43:46;;;;;;;1.47;1.20;;;7.70;94.50;;;;;;4973540;28;20438;-78
2022/04/08 06:46:13;;;;;;;2.03;1.40;;;7.90;94.10;;;;;;4973741;28;20429;-79
2022/04/08 06:48:38;;;;;;;2.13;1.50;;;8.00;93.50;;;;;;4973776;28;20530;-79
2022/04/08 06:51:04;;;;;;;4.57;2.20;;;8.20;93.60;;;;;;4973032;28;20429;-79
2022/04/08 06:53:34;;;;;;;3.57;1.60;;;8.10;92.90;;;;;;4972880;28;20225;-79
2022/04/08 06:56:03;;;;;;;4.03;1.57;;;8.00;92.60;;;;;;4973145;28;20194;-79
2022/04/08 06:58:30;;;;;;;4.07;2.33;;;8.00;92.50;;;;;;4973530;28;20857;-78
2022/04/08 07:00:56;;;;;;;2.40;1.40;;;8.00;92.30;;;;;;4973378;28;20450;-78
2022/04/08 07:03:22;;;;;;;6.20;2.70;;;8.10;92.50;;;;;;4979089;28;20445;-79
2022/04/08 07:05:48;;;;;;;1.10;1.00;;;8.10;91.10;;;;;;4972378;28;20553;-79
2022/04/08 07:08:14;;;;;;;6.03;1.70;;;8.10;90.70;;;;;;4991941;28;20650;-79
2022/04/08 07:10:39;;;;;;;2.50;1.50;;;8.10;90.90;;;;;;4991055;28;20229;-79
2022/04/08 07:13:06;;;;;;;3.50;1.37;;;8.10;91.30;;;;;;4985906;28;20182;-80
2022/04/08 07:15:32;;;;;;;5.40;1.60;;;8.20;90.10;;;;;;4986530;28;20212;-82
2022/04/08 07:17:58;;;;;;;1.30;1.20;;;8.20;89.40;;;;;;4994577;28;20511;-81
2022/04/08 07:20:23;;;;;;;2.37;1.20;;;8.20;89.70;;;;;;4992783;28;20190;-79
2022/04/08 07:22:50;;;;;;;2.00;1.27;;;8.30;89.50;;;;;;4992588;28;20587;-79
2022/04/08 07:25:17;;;;;;;1.60;1.30;;;8.30;89.20;;;;;;4992176;28;20281;-80
2022/04/08 07:27:44;;;;;;;4.70;1.47;;;8.30;89.00;;;;;;4993012;28;20417;-81
2022/04/08 07:30:11;;;;;;;4.30;1.40;;;8.30;89.00;;;;;;4992676;28;20447;-79
2022/04/08 07:32:37;;;;;;;1.97;1.33;;;8.30;89.30;;;;;;4993136;28;20425;-80
2022/04/08 07:35:02;;;;;;;2.80;1.87;;;8.30;89.80;;;;;;4993479;28;20441;-80
2022/04/08 07:37:29;;;;;;;3.47;1.63;;;8.40;90.10;;;;;;4991857;28;20229;-80
2022/04/08 07:39:56;;;;;;;1.90;1.30;;;8.30;89.60;;;;;;4991841;28;20182;-80
2022/04/08 07:42:22;;;;;;;2.17;1.97;;;8.30;89.80;;;;;;4991469;28;20428;-79
2022/04/08 07:44:48;;;;;;;2.70;1.60;;;8.20;89.60;;;;;;4991892;28;20570;-79
2022/04/08 07:47:14;;;;;;;2.53;1.80;;;8.20;89.90;;;;;;4992001;28;20478;-80
2022/04/08 07:49:39;;;;;;;2.90;2.00;;;8.20;89.90;;;;;;4991656;28;20170;-79
2022/04/08 07:52:05;;;;;;;3.27;1.83;;;8.20;89.40;;;;;;4992948;28;20436;-79
2022/04/08 07:54:31;;;;;;;1.63;1.60;;;8.30;89.80;;;;;;4993246;28;20267;-78
2022/04/08 07:56:56;;;;;;;1.37;1.20;;;8.50;89.40;;;;;;4991492;28;20619;-78
2022/04/08 07:59:22;;;;;;;1.47;1.40;;;8.50;89.10;;;;;;4990876;28;20190;-78
2022/04/08 08:01:48;;;;;;;1.70;1.27;;;8.50;89.10;;;;;;4991690;28;20188;-78
2022/04/08 08:04:15;;;;;;;5.17;1.40;;;8.50;88.10;;;;;;4992784;28;20209;-80
2022/04/08 08:06:41;;;;;;;1.30;1.30;;;8.40;87.40;;;;;;4992148;28;20456;-84
2022/04/08 08:09:06;;;;;;;1.37;1.03;;;8.40;88.20;;;;;;4992399;28;20425;-82
2022/04/08 08:11:32;;;;;;;1.37;1.10;;;8.40;88.10;;;;;;4994110;28;20186;-79
2022/04/08 08:13:58;;;;;;;3.47;1.33;;;8.40;88.60;;;;;;4977394;28;20234;-80
2022/04/08 08:16:24;;;;;;;2.40;1.57;;;8.50;88.30;;;;;;4997701;28;20190;-79
2022/04/08 08:18:50;;;;;;;3.30;1.40;;;8.50;87.30;;;;;;4978029;28;20272;-82
2022/04/08 08:21:16;;;;;;;2.87;1.73;;;8.40;87.30;;;;;;4992425;28;20560;-79
2022/04/08 08:23:41;;;;;;;3.90;1.40;;;8.40;87.90;;;;;;4992896;28;20913;-83
2022/04/08 08:26:07;;;;;;;4.00;1.40;;;8.40;87.90;;;;;;4993717;28;20927;-79
2022/04/08 08:28:32;;;;;;;3.70;1.30;;;8.40;87.80;;;;;;4978201;28;20218;-80
2022/04/08 08:30:58;;;;;;;1.67;1.17;;;8.40;88.20;;;;;;4972918;28;20189;-81
2022/04/08 08:33:24;;;;;;;1.57;1.40;;;8.60;88.30;;;;;;4975504;28;20202;-79
2022/04/08 08:35:49;;;;;;;6.13;1.80;;;8.80;88.00;;;;;;4974300;28;20611;-79
2022/04/08 08:38:15;;;;;;;6.53;1.33;;;9.00;86.30;;;;;;4980094;28;20731;-81
2022/04/08 08:40:44;;;;;;;2.50;1.07;;;9.10;85.20;;;;;;4986622;28;20605;-82
2022/04/08 08:43:17;;;;;;;1.20;1.13;;;9.10;85.40;;;;;;4999065;28;20420;-81
2022/04/08 08:45:48;;;;;;;2.30;1.00;;;9.00;84.50;;;;;;4999498;28;20463;-80
2022/04/08 08:48:15;;;;;;;3.73;1.40;;;9.10;84.60;;;;;;4997090;28;20421;-80
2022/04/08 08:50:48;;;;;;;4.03;1.50;;;9.00;84.90;;;;;;4998469;28;20409;-80
2022/04/08 08:53:19;;;;;;;5.40;1.53;;;9.00;84.70;;;;;;4992522;28;20406;-81
2022/04/08 08:55:48;;;;;;;1.10;1.00;;;9.00;84.30;;;;;;4976626;28;20782;-79
2022/04/08 08:58:15;;;;;;;4.40;1.30;;;9.10;84.90;;;;;;4977092;28;20796;-80
2022/04/08 09:00:40;;;;;;;1.73;1.40;;;9.30;84.80;;;;;;4976870;28;20429;-83
2022/04/08 09:03:06;;;;;;;3.90;1.40;;;9.30;83.80;;;;;;4976500;28;20420;-81
2022/04/08 09:05:40;;;;;;;2.40;1.20;;;9.20;83.80;;;;;;4977429;28;20206;-80
2022/04/08 09:08:08;;;;;;;2.80;1.70;;;9.10;83.90;;;;;;4976975;28;20165;-80
2022/04/08 09:10:46;;;;;;;3.43;1.50;;;9.10;84.30;;;;;;4976991;28;20428;-80
2022/04/08 09:13:16;;;;;;;2.67;1.30;;;9.10;84.30;;;;;;4976296;28;21007;-80
2022/04/08 09:15:54;;;;;;;7.53;1.67;;;9.30;84.90;;;;;;4975993;28;20414;-82
2022/04/08 09:18:20;;;;;;;3.70;1.50;;;9.40;84.60;;;;;;4979308;28;20413;-80
2022/04/08 09:20:49;;;;;;;4.93;1.50;;;9.80;84.50;;;;;;4976955;28;20420;-79
2022/04/08 09:23:16;;;;;;;5.20;1.67;;;9.80;83.40;;;;;;4976617;28;20472;-80
2022/04/08 09:25:42;;;;;;;5.70;1.80;;;9.80;84.10;;;;;;4976102;28;21124;-80
2022/04/08 09:28:18;;;;;;;2.10;1.50;;;9.90;84.10;;;;;;4993335;28;20461;-81
2022/04/08 09:30:58;;;;;;;3.70;1.43;;;9.70;83.80;;;;;;4976150;28;20409;-80
2022/04/08 09:33:26;;;;;;;3.10;1.63;;;9.50;84.00;;;;;;4975818;28;20442;-80
2022/04/08 09:35:54;;;;;;;3.47;1.50;;;9.40;84.50;;;;;;4975330;28;20436;-80
2022/04/08 09:38:22;;;;;;;2.77;1.33;;;9.40;84.00;;;;;;4992372;28;20465;-80
2022/04/08 09:40:48;;;;;;;7.80;1.40;;;9.50;84.30;;;;;;4976803;28;20426;-80
2022/04/08 09:43:14;;;;;;;9.27;2.13;;;9.70;84.20;;;;;;4978349;28;20487;-81
2022/04/08 09:45:40;;;;;;;3.13;2.40;;;9.70;83.30;;;;;;4975078;28;20469;-80
2022/04/08 09:48:08;;;;;;;3.60;1.50;;;9.70;82.70;;;;;;4975705;28;20429;-80
2022/04/08 09:50:36;;;;;;;9.47;1.43;;;9.70;82.80;;;;;;4977306;28;20229;-81
2022/04/08 09:53:03;;;;;;;10.10;1.53;;;9.90;82.70;;;;;;4975883;28;20505;-79
2022/04/08 09:55:30;;;;;;;2.60;1.70;;;9.90;82.20;;;;;;4975343;28;20422;-78
2022/04/08 09:58:03;;;;;;;2.10;1.50;;;10.00;81.80;;;;;;4975756;28;20422;-80
2022/04/08 10:00:29;;;;;;;2.80;1.90;;;10.00;82.10;;;;;;4974999;28;20445;-80
2022/04/08 10:02:58;;;;;;;15.43;1.87;;;10.20;82.20;;;;;;4974809;28;21246;-80
2022/04/08 10:05:24;;;;;;;2.67;1.60;;;10.30;81.70;;;;;;4975365;28;20481;-81
2022/04/08 10:07:52;;;;;;;5.00;1.97;;;10.20;81.00;;;;;;4975104;28;20505;-80
2022/04/08 10:10:40;;;;;;;4.60;2.43;;;10.20;82.40;;;;;;4974280;28;20186;-80
2022/04/08 10:13:15;;;;;;;2.90;1.30;;;10.30;82.70;;;;;;4974913;28;20416;-79
2022/04/08 10:16:04;;;;;;;7.60;2.07;;;10.20;82.10;;;;;;4974276;28;20433;-80
2022/04/08 10:18:36;;;;;;;2.13;1.60;;;10.10;82.00;;;;;;4975229;28;20564;-78
2022/04/08 10:21:01;;;;;;;3.50;1.70;;;10.00;82.50;;;;;;4974346;28;20430;-80
2022/04/08 10:23:38;;;;;;;4.47;1.67;;;10.00;82.10;;;;;;4975191;28;20487;-80
2022/04/08 10:26:05;;;;;;;3.00;1.50;;;9.90;81.60;;;;;;4973693;28;20215;-80
2022/04/08 10:28:38;;;;;;;5.00;1.70;;;9.90;82.00;;;;;;4973727;28;20453;-78
2022/04/08 10:31:20;;;;;;;4.53;1.50;;;9.90;82.20;;;;;;4975122;28;20998;-80
2022/04/08 10:34:01;;;;;;;2.87;1.73;;;9.70;80.70;;;;;;4974287;28;20437;-81
2022/04/08 10:36:38;;;;;;;5.57;2.07;;;9.70;81.70;;;;;;4973847;28;20497;-79
2022/04/08 10:39:15;;;;;;;3.57;1.30;;;9.70;81.20;;;;;;4973111;28;20958;-80
2022/04/08 10:42:03;;;;;;;3.03;1.43;;;9.70;79.90;;;;;;4973361;28;21014;-80
2022/04/08 10:44:37;;;;;;;7.50;2.47;;;9.50;79.70;;;;;;4975231;28;20831;-80
2022/04/08 10:47:23;;;;;;;4.00;1.83;;;9.40;80.10;;;;;;4974044;28;20433;-80
2022/04/08 10:50:10;;;;;;;3.33;1.30;;;9.50;81.00;;;;;;4975047;28;20398;-80
2022/04/08 10:52:40;;;;;;;5.77;1.57;;;9.50;80.30;;;;;;4973393;28;20414;-80
2022/04/08 10:55:13;;;;;;;5.20;1.60;;;9.50;81.10;;;;;;4972363;28;20442;-81
2022/04/08 10:57:42;;;;;;;1.80;1.70;;;9.60;81.00;;;;;;4973296;28;20418;-78
2022/04/08 11:00:11;;;;;;;4.10;1.70;;;9.60;80.70;;;;;;4973112;28;20512;-80
2022/04/08 11:02:41;;;;;;;2.23;1.60;;;9.60;80.30;;;;;;4972781;28;20433;-80
2022/04/08 11:05:10;;;;;;;3.77;1.60;;;9.70;80.70;;;;;;4971882;28;20470;-80
2022/04/08 11:07:43;;;;;;;4.00;1.87;;;9.80;80.40;;;;;;4973753;28;20943;-80
2022/04/08 11:10:14;;;;;;;2.57;1.80;;;9.80;81.00;;;;;;4973728;28;20418;-79
2022/04/08 11:12:47;;;;;;;3.73;2.13;;;9.70;80.90;;;;;;4972917;28;20966;-80
2022/04/08 11:15:20;;;;;;;3.13;1.60;;;9.70;80.70;;;;;;4974049;28;20434;-79
2022/04/08 11:17:47;;;;;;;5.37;1.80;;;9.80;81.00;;;;;;4972123;28;20450;-80
2022/04/08 11:20:17;;;;;;;5.33;2.03;;;9.90;81.10;;;;;;4972399;28;20442;-80
2022/04/08 11:22:49;;;;;;;5.10;2.33;;;9.90;80.90;;;;;;4972781;28;20430;-79
2022/04/08 11:25:24;;;;;;;2.10;1.77;;;9.90;80.70;;;;;;4972811;28;20641;-80
2022/04/08 11:28:04;;;;;;;2.43;1.80;;;9.80;79.80;;;;;;4972607;28;20449;-80
2022/04/08 11:30:31;;;;;;;7.00;2.20;;;9.80;80.10;;;;;;4973377;28;20414;-80
2022/04/08 11:32:57;;;;;;;4.83;2.00;;;9.90;80.60;;;;;;4972366;28;20449;-80
2022/04/08 11:35:27;;;;;;;5.23;2.00;;;9.90;80.10;;;;;;4972527;28;20438;-79
2022/04/08 11:37:52;;;;;;;3.27;2.33;;;10.00;80.20;;;;;;4972373;28;20477;-80
2022/04/08 11:40:18;;;;;;;4.63;1.70;;;10.00;79.50;;;;;;4971563;28;20529;-80
2022/04/08 11:42:47;;;;;;;3.13;1.53;;;10.00;79.50;;;;;;4985359;28;20604;-80
2022/04/08 11:45:15;;;;;;;3.83;1.93;;;10.20;79.80;;;;;;4988828;28;20206;-81
2022/04/08 11:47:50;;;;;;;4.53;2.20;;;10.20;79.00;;;;;;4992774;28;20409;-78
2022/04/08 11:50:27;;;;;;;2.17;1.57;;;10.20;79.40;;;;;;4993493;28;20504;-80
2022/04/08 11:52:55;;;;;;;2.83;1.80;;;10.00;79.10;;;;;;4991980;28;20474;-80
2022/04/08 11:55:28;;;;;;;4.50;2.17;;;10.00;79.30;;;;;;4991388;28;20440;-80
2022/04/08 11:57:55;;;;;;;4.50;2.00;;;9.90;80.00;;;;;;4992418;28;20424;-80
2022/04/08 12:00:33;;;;;;;6.60;2.00;;;9.90;80.40;;;;;;4992959;28;20436;-80
2022/04/08 12:02:59;;;;;;;3.50;2.20;;;10.10;81.00;;;;;;4991041;28;20420;-79
2022/04/08 12:05:25;;;;;;;8.10;1.97;;;10.10;80.30;;;;;;4990807;28;20460;-79
2022/04/08 12:07:57;;;;;;;8.33;2.20;;;10.20;80.80;;;;;;4990762;28;20496;-80
2022/04/08 12:10:24;;;;;;;3.37;2.00;;;10.20;81.00;;;;;;4993273;28;21016;-80
2022/04/08 12:12:50;;;;;;;2.87;1.77;;;10.10;80.90;;;;;;4990650;28;20420;-80
2022/04/08 12:15:21;;;;;;;6.40;2.20;;;10.20;81.20;;;;;;4975375;28;20437;-80
2022/04/08 12:17:46;;;;;;;2.70;1.93;;;10.20;80.80;;;;;;4988262;28;20418;-79
2022/04/08 12:20:17;;;;;;;1.67;1.50;;;10.10;80.50;;;;;;4987549;28;20769;-79
2022/04/08 12:22:49;;;;;;;2.77;2.03;;;10.20;81.20;;;;;;4971620;28;20234;-80
2022/04/08 12:25:18;;;;;;;4.43;1.80;;;10.10;80.40;;;;;;4971023;28;20504;-80
2022/04/08 12:27:50;;;;;;;7.90;2.37;;;10.10;80.60;;;;;;4972726;28;20457;-79
2022/04/08 12:30:16;;;;;;;2.87;2.00;;;10.10;80.40;;;;;;4971340;28;20983;-81
2022/04/08 12:32:46;;;;;;;6.93;2.00;;;10.10;81.10;;;;;;4972160;28;20420;-79
2022/04/08 12:35:12;;;;;;;4.60;2.10;;;10.10;80.20;;;;;;4971436;28;20437;-79
2022/04/08 12:37:38;;;;;;;2.73;1.80;;;10.10;79.90;;;;;;4970499;28;20453;-79
2022/04/08 12:40:05;;;;;;;2.60;1.70;;;10.00;80.00;;;;;;4971394;28;20282;-80
2022/04/08 12:42:38;;;;;;;5.27;1.87;;;9.90;79.80;;;;;;4972969;28;20421;-80
2022/04/08 12:45:06;;;;;;;4.10;1.77;;;9.90;79.40;;;;;;4971750;28;20462;-80
2022/04/08 12:47:31;;;;;;;2.80;1.93;;;9.90;80.00;;;;;;4971026;28;20428;-80
2022/04/08 12:49:57;;;;;;;5.17;2.33;;;9.80;79.90;;;;;;4967651;28;20414;-80
2022/04/08 12:52:24;;;;;;;2.50;1.80;;;9.80;80.20;;;;;;4980425;28;20175;-80
2022/04/08 12:54:50;;;;;;;5.07;2.50;;;9.80;80.70;;;;;;4960742;28;20675;-80
2022/04/08 12:57:18;;;;;;;4.57;1.97;;;9.90;81.10;;;;;;4966558;28;20437;-80